Time;durP1;ratioP1;P1;durP2;ratioP2;P2;SDS_P1;SDS_P2;PMS_P1;PMS_P2;Temp;Humidity;BMP_temperature;BMP_pressure;BME280_temperature;BME280_humidity;BME280_pressure;Samples;Min_cycle;Max_cycle;Signal;HPM_P1;HPM_P2
2022/12/30 00:01:16;;;;;;;11.20;2.90;;;;;;;7.63;72.99;100779.97;3566762;40;20088;-64
2022/12/30 00:03:43;;;;;;;10.32;2.47;;;;;;;7.54;73.35;100769.72;3568614;40;20134;-64
2022/12/30 00:06:14;;;;;;;10.77;2.80;;;;;;;7.55;73.02;100776.81;3566382;40;20463;-64
2022/12/30 00:08:55;;;;;;;10.38;2.78;;;;;;;7.56;73.23;100783.91;3566288;40;20079;-64
2022/12/30 00:11:26;;;;;;;11.13;2.90;;;;;;;7.54;73.14;100775.06;3566373;40;20053;-64
2022/12/30 00:34:34;;;;;;;11.05;2.40;;;;;;;7.40;73.54;100788.28;3568772;40;20130;-64
2022/12/30 00:37:00;;;;;;;9.93;2.72;;;;;;;7.44;73.54;100797.88;3566171;40;20361;-64
2022/12/30 00:39:27;;;;;;;14.95;2.80;;;;;;;7.43;74.09;100798.84;3564969;40;20057;-64
2022/12/30 00:44:37;;;;;;;11.27;2.60;;;;;;;7.37;74.17;100801.81;3564566;40;20569;-64
2022/12/30 00:47:07;;;;;;;15.23;3.00;;;;;;;6.81;74.17;100709.19;3563477;40;20053;-64
2022/12/30 00:57:45;;;;;;;14.65;3.28;;;;;;;7.18;73.75;100799.16;3563711;40;20080;-64
2022/12/30 01:00:13;;;;;;;13.05;2.92;;;;;;;7.16;74.58;100798.34;3565353;40;20057;-64
2022/12/30 01:02:39;;;;;;;13.98;2.97;;;;;;;7.12;74.34;100797.63;3564501;40;20064;-64
2022/12/30 01:05:05;;;;;;;13.27;3.08;;;;;;;6.70;74.75;100731.94;3564605;40;20071;-64
2022/12/30 01:07:31;;;;;;;12.73;2.78;;;;;;;7.04;74.58;100810.53;3565980;40;20064;-64
2022/12/30 01:09:58;;;;;;;14.20;3.00;;;;;;;7.01;74.62;100810.66;3565086;40;20478;-64
2022/12/30 01:12:25;;;;;;;15.60;3.10;;;;;;;7.00;75.00;100810.72;3565313;40;20049;-64
2022/12/30 01:14:53;;;;;;;13.38;3.42;;;;;;;6.47;75.26;100732.13;3568019;40;20056;-64
2022/12/30 01:17:28;;;;;;;11.90;2.97;;;;;;;6.96;75.98;100826.03;3566741;40;20053;-64
2022/12/30 01:19:54;;;;;;;11.50;2.60;;;;;;;6.94;75.67;100817.22;3565722;40;20061;-65
2022/12/30 01:22:20;;;;;;;13.90;3.05;;;;;;;6.97;75.64;100817.06;3564961;40;20153;-64
2022/12/30 01:24:45;;;;;;;15.00;3.08;;;;;;;6.27;75.19;100699.22;3568011;40;20053;-64
2022/12/30 01:27:11;;;;;;;12.98;2.90;;;;;;;6.92;75.63;100808.44;3567298;40;20082;-64
2022/12/30 01:29:41;;;;;;;15.13;3.35;;;;;;;6.92;75.26;100803.94;3563045;40;20286;-64
2022/12/30 01:32:11;;;;;;;15.32;2.90;;;;;;;6.92;76.04;100813.75;3564037;40;20585;-64
2022/12/30 01:34:38;;;;;;;14.35;2.63;;;;;;;6.90;75.76;100831.66;3568028;40;20068;-64
2022/12/30 01:37:05;;;;;;;13.85;3.00;;;;;;;6.90;76.02;100820.97;3565535;40;20053;-65
2022/12/30 01:39:30;;;;;;;14.88;3.05;;;;;;;6.90;76.23;100826.31;3566176;40;20478;-64
2022/12/30 01:41:56;;;;;;;15.65;2.72;;;;;;;6.90;75.95;100829.00;3565027;40;20063;-64
2022/12/30 01:44:50;;;;;;;14.20;3.03;;;;;;;6.90;75.76;100834.34;3564161;40;20297;-64
2022/12/30 01:47:24;;;;;;;12.25;2.83;;;;;;;6.89;75.79;100829.94;3564036;40;20060;-64
2022/12/30 01:49:58;;;;;;;12.80;2.88;;;;;;;6.88;75.73;100833.53;3568391;40;20056;-64
2022/12/30 01:52:26;;;;;;;14.25;3.08;;;;;;;6.89;76.30;100835.28;3566715;40;20086;-65
2022/12/30 01:55:04;;;;;;;10.13;2.92;;;;;;;6.88;75.57;100847.78;3562802;40;20060;-64
2022/12/30 01:57:32;;;;;;;15.57;3.38;;;;;;;6.84;76.31;100839.97;3563089;40;20080;-64
2022/12/30 02:00:02;;;;;;;15.60;2.90;;;;;;;6.85;76.35;100847.03;3562865;40;20049;-64
2022/12/30 02:02:30;;;;;;;14.23;2.95;;;;;;;6.77;76.28;100838.53;3563381;40;20096;-64
2022/12/30 02:04:58;;;;;;;12.88;3.10;;;;;;;6.34;75.77;100768.34;3562432;40;20061;-65
2022/12/30 02:07:33;;;;;;;10.88;3.05;;;;;;;6.89;76.06;100851.31;3564637;40;20406;-64
2022/12/30 02:10:00;;;;;;;14.43;3.22;;;;;;;6.21;76.14;100728.88;3566449;40;20056;-64
2022/12/30 02:12:26;;;;;;;15.70;2.92;;;;;;;6.91;75.75;100836.06;3567236;40;20049;-64
2022/12/30 02:14:56;;;;;;;16.65;3.50;;;;;;;6.94;76.22;100838.59;3566101;40;20384;-64
2022/12/30 02:18:04;;;;;;;12.35;2.97;;;;;;;6.94;75.64;100835.91;3566495;40;20065;-63
2022/12/30 02:21:07;;;;;;;16.10;2.70;;;;;;;6.94;75.36;100827.91;3564597;40;20056;-62
2022/12/30 02:24:07;;;;;;;13.32;2.75;;;;;;;6.96;76.07;100823.38;3564712;40;20056;-62
2022/12/30 02:27:03;;;;;;;6.90;2.17;;;;;;;6.95;75.90;100829.66;3566452;40;20384;-62
2022/12/30 02:29:34;;;;;;;13.32;3.00;;;;;;;6.95;75.14;100822.50;3569251;40;20045;-62
2022/12/30 02:32:31;;;;;;;15.65;2.90;;;;;;;6.92;75.41;100811.09;3563274;40;20059;-62
2022/12/30 02:35:34;;;;;;;15.70;3.25;;;;;;;6.90;75.67;100810.28;3568085;40;20079;-63
2022/12/30 02:38:38;;;;;;;14.68;2.28;;;;;;;6.83;75.64;100801.69;3558176;40;20053;-62
2022/12/30 02:47:09;;;;;;;15.50;2.90;;;;;;;6.67;76.28;100798.88;3565214;40;20068;-64
2022/12/30 02:49:41;;;;;;;14.32;2.60;;;;;;;6.62;76.54;100795.53;3563179;40;20072;-64
2022/12/30 02:52:18;;;;;;;9.13;2.58;;;;;;;6.60;76.70;100800.09;3563603;40;20060;-64
2022/12/30 02:54:49;;;;;;;17.38;3.30;;;;;;;6.48;76.79;100769.47;3568293;40;20430;-64
2022/12/30 02:57:29;;;;;;;8.57;2.38;;;;;;;6.51;76.47;100781.81;3561582;40;20343;-64
2022/12/30 03:06:43;;;;;;;8.63;2.67;;;;;;;6.39;76.78;100777.91;3561871;40;20060;-64
2022/12/30 03:11:12;;;;;;;9.40;2.53;;;;;;;6.36;76.79;100774.50;3554129;40;20071;-64
2022/12/30 03:12:48;;;;;;;15.60;2.72;;;;;;;6.30;76.95;100778.31;3564043;40;20073;-64
2022/12/30 03:15:22;;;;;;;12.70;2.67;;;;;;;6.27;77.58;100773.97;3564657;40;20055;-64
2022/12/30 03:17:50;;;;;;;11.55;2.65;;;;;;;6.32;77.18;100784.47;3563520;40;20109;-65
2022/12/30 03:20:21;;;;;;;10.45;2.67;;;;;;;6.28;77.38;100780.19;3564665;40;20062;-64
2022/12/30 03:28:35;;;;;;;12.07;2.63;;;;;;;6.33;77.28;100770.16;3565396;40;20517;-64
2022/12/30 03:31:10;;;;;;;15.38;3.20;;;;;;;6.24;77.39;100774.09;3562098;40;20057;-64
2022/12/30 03:33:35;;;;;;;15.80;3.13;;;;;;;6.26;77.30;100772.25;3567488;40;20071;-64
2022/12/30 03:36:37;;;;;;;7.68;2.17;;;;;;;6.21;77.35;100763.56;3569409;40;20065;-64
2022/12/30 03:39:14;;;;;;;12.63;2.78;;;;;;;6.16;77.57;100765.59;3563949;40;20060;-64
2022/12/30 03:41:45;;;;;;;15.57;3.30;;;;;;;6.12;77.73;100757.78;3564563;40;20330;-64
2022/12/30 03:44:11;;;;;;;9.13;2.65;;;;;;;6.08;77.58;100773.06;3565212;40;20496;-64
2022/12/30 03:46:43;;;;;;;13.05;3.53;;;;;;;6.03;77.37;100759.94;3566152;40;20095;-64
2022/12/30 03:49:09;;;;;;;12.70;3.05;;;;;;;6.01;77.60;100759.13;3564163;40;20069;-64
2022/12/30 03:51:35;;;;;;;14.32;3.63;;;;;;;5.87;78.13;100747.28;3562513;40;20075;-64
2022/12/30 03:54:00;;;;;;;12.20;3.50;;;;;;;5.97;78.38;100770.00;3564567;40;20041;-64
2022/12/30 03:56:26;;;;;;;11.07;2.65;;;;;;;5.94;78.08;100770.13;3564884;40;20320;-64
2022/12/30 03:58:51;;;;;;;17.08;3.28;;;;;;;5.90;78.56;100760.47;3564094;40;20053;-64
2022/12/30 04:01:17;;;;;;;13.30;2.55;;;;;;;5.85;78.53;100767.84;3564713;40;20056;-64
2022/12/30 04:03:43;;;;;;;13.32;3.70;;;;;;;5.88;78.63;100781.03;3563397;40;20057;-64
2022/12/30 04:06:08;;;;;;;20.73;3.25;;;;;;;5.81;78.40;100773.31;3562605;40;20336;-64
2022/12/30 04:08:34;;;;;;;12.13;3.13;;;;;;;5.05;78.59;100653.94;3562838;40;20193;-64
2022/12/30 04:11:00;;;;;;;14.30;3.03;;;;;;;5.80;78.80;100787.59;3567262;40;20347;-64
2022/12/30 04:13:25;;;;;;;15.25;3.28;;;;;;;5.77;79.05;100779.72;3567672;40;20045;-64
2022/12/30 04:15:52;;;;;;;14.48;3.00;;;;;;;5.75;79.44;100775.38;3565953;40;20110;-64
2022/12/30 04:18:18;;;;;;;12.05;3.00;;;;;;;5.76;79.08;100796.63;3568547;40;20127;-64
2022/12/30 04:20:46;;;;;;;15.40;3.17;;;;;;;5.77;79.59;100800.16;3563447;40;20127;-64
2022/12/30 04:23:12;;;;;;;12.13;4.15;;;;;;;5.66;79.06;100768.63;3561153;40;20351;-64
2022/12/30 04:25:38;;;;;;;12.10;2.67;;;;;;;5.75;79.20;100802.03;3568459;40;20071;-64
2022/12/30 04:28:03;;;;;;;10.40;2.75;;;;;;;5.77;79.70;100800.16;3563721;40;20069;-64
2022/12/30 04:30:29;;;;;;;13.07;2.60;;;;;;;5.71;79.90;100787.97;3562645;40;20088;-64
2022/12/30 04:32:55;;;;;;;12.32;2.90;;;;;;;5.76;79.47;100782.44;3566673;40;20056;-64
2022/12/30 04:35:20;;;;;;;14.88;2.80;;;;;;;5.76;79.33;100782.44;3570792;40;20048;-64
2022/12/30 04:37:49;;;;;;;15.95;3.15;;;;;;;5.75;79.46;100776.22;3566275;40;20049;-64
2022/12/30 04:40:16;;;;;;;12.52;2.92;;;;;;;5.74;79.68;100779.84;3568958;40;20087;-63
2022/12/30 04:42:42;;;;;;;18.23;2.70;;;;;;;5.01;79.39;100660.28;3572367;40;20067;-63
2022/12/30 04:45:09;;;;;;;12.38;2.80;;;;;;;5.65;78.95;100777.56;3563113;40;20049;-63
2022/12/30 04:47:34;;;;;;;11.00;3.22;;;;;;;5.68;79.88;100779.22;3567124;40;20438;-63
2022/12/30 04:50:00;;;;;;;15.63;3.13;;;;;;;5.68;79.72;100773.91;3566778;40;20099;-63
2022/12/30 04:52:26;;;;;;;16.67;3.15;;;;;;;5.65;79.95;100780.22;3569459;40;20049;-63
2022/12/30 04:54:52;;;;;;;10.23;2.50;;;;;;;5.61;80.31;100789.25;3567071;40;20068;-63
2022/12/30 04:57:17;;;;;;;13.45;3.05;;;;;;;5.65;80.00;100790.03;3561421;40;20057;-63
2022/12/30 04:59:43;;;;;;;14.50;2.92;;;;;;;5.59;80.65;100761.81;3565213;40;20091;-63
2022/12/30 05:02:09;;;;;;;13.50;2.85;;;;;;;5.66;80.80;100776.63;3568017;40;20117;-63
2022/12/30 05:04:35;;;;;;;12.38;2.67;;;;;;;5.66;80.54;100770.41;3563624;40;20131;-63
2022/12/30 05:07:02;;;;;;;11.45;3.00;;;;;;;4.72;80.90;100610.91;3566107;40;20053;-63
2022/12/30 05:09:28;;;;;;;9.05;2.78;;;;;;;5.66;80.64;100773.09;3569660;40;20384;-63
2022/12/30 05:11:54;;;;;;;14.02;3.17;;;;;;;5.63;80.93;100763.41;3565162;40;20060;-63
2022/12/30 05:14:19;;;;;;;12.60;3.60;;;;;;;5.66;81.20;100765.94;3565596;40;20119;-63
2022/12/30 05:16:45;;;;;;;11.57;2.97;;;;;;;5.66;80.53;100759.75;3563754;40;20061;-63
2022/12/30 05:19:11;;;;;;;15.75;5.35;;;;;;;5.68;80.78;100757.91;3563330;40;20053;-63
2022/12/30 05:21:37;;;;;;;19.52;3.88;;;;;;;5.11;81.15;100662.53;3567735;40;20443;-63
2022/12/30 05:26:47;;;;;;;8.90;2.50;;;;;;;5.61;81.05;100740.41;3564252;40;20117;-63
2022/12/30 05:29:13;;;;;;;11.73;2.85;;;;;;;5.68;81.54;100750.75;3561210;40;20083;-63
2022/12/30 05:31:39;;;;;;;17.33;3.80;;;;;;;5.72;81.61;100749.69;3566655;40;20060;-63
2022/12/30 05:34:04;;;;;;;18.80;3.30;;;;;;;5.73;81.82;100746.06;3565826;40;20072;-63
2022/12/30 05:36:30;;;;;;;11.73;2.67;;;;;;;5.76;81.26;100756.63;3565809;40;20306;-63
2022/12/30 05:38:56;;;;;;;11.50;2.60;;;;;;;5.78;81.14;100756.56;3562896;40;20192;-63
2022/12/30 05:41:21;;;;;;;14.35;2.90;;;;;;;5.80;80.93;100746.69;3553510;40;20057;-63
2022/12/30 05:43:48;;;;;;;13.85;3.13;;;;;;;5.16;81.14;100650.81;3562686;40;20057;-63
2022/12/30 05:46:14;;;;;;;9.98;2.70;;;;;;;5.54;81.14;100692.66;3563945;40;20059;-63
2022/12/30 05:48:40;;;;;;;10.52;2.63;;;;;;;5.90;81.18;100744.47;3563504;40;20049;-63
2022/12/30 05:51:06;;;;;;;13.75;3.40;;;;;;;5.92;81.32;100755.97;3563035;40;20065;-63
2022/12/30 05:53:31;;;;;;;13.55;3.35;;;;;;;5.29;81.67;100638.69;3565117;40;20070;-63
2022/12/30 05:56:02;;;;;;;14.07;3.10;;;;;;;5.91;81.21;100744.41;3562622;40;20116;-64
2022/12/30 05:58:28;;;;;;;10.85;2.60;;;;;;;5.90;80.73;100741.81;3570307;40;20404;-63
2022/12/30 06:00:57;;;;;;;10.90;2.47;;;;;;;5.96;81.16;100746.91;3565451;40;20061;-63
2022/12/30 06:03:22;;;;;;;10.88;3.13;;;;;;;5.97;81.36;100756.66;3565671;40;20131;-63
2022/12/30 06:05:54;;;;;;;14.63;3.42;;;;;;;5.77;81.65;100721.03;3564105;40;20057;-63
2022/12/30 06:08:19;;;;;;;13.13;2.60;;;;;;;5.22;81.46;100608.78;3565757;40;20058;-63
2022/12/30 06:10:45;;;;;;;14.68;3.15;;;;;;;5.24;81.40;100612.25;3567319;40;20065;-63
2022/12/30 06:13:10;;;;;;;12.32;2.65;;;;;;;6.03;81.55;100745.72;3564311;40;20383;-64
2022/12/30 06:15:36;;;;;;;12.75;3.15;;;;;;;6.03;81.14;100729.72;3562491;40;20328;-62
2022/12/30 06:18:01;;;;;;;10.93;2.90;;;;;;;6.06;80.82;100726.91;3566743;40;20059;-61
2022/12/30 06:20:27;;;;;;;9.63;3.05;;;;;;;6.08;81.43;100725.03;3566410;40;20391;-63
2022/12/30 06:22:52;;;;;;;15.20;3.40;;;;;;;6.12;80.90;100721.31;3564015;40;20056;-62
2022/12/30 06:25:18;;;;;;;12.60;2.72;;;;;;;6.12;80.58;100715.06;3559501;40;20064;-62
2022/12/30 06:27:44;;;;;;;12.27;2.58;;;;;;;6.12;80.82;100715.06;3569007;40;20063;-62
2022/12/30 06:30:10;;;;;;;11.02;2.33;;;;;;;6.01;80.90;100696.88;3571634;40;20145;-62
2022/12/30 06:32:36;;;;;;;10.15;2.55;;;;;;;6.13;80.48;100715.03;3569710;40;20061;-62
2022/12/30 06:35:01;;;;;;;12.23;2.78;;;;;;;5.43;81.13;100590.13;3568150;40;20063;-63
2022/12/30 06:37:27;;;;;;;12.60;3.17;;;;;;;6.14;80.89;100711.41;3567371;40;20127;-62
2022/12/30 06:39:53;;;;;;;12.73;3.00;;;;;;;6.15;80.63;100709.59;3565936;40;20052;-62
2022/12/30 06:42:18;;;;;;;11.77;2.95;;;;;;;6.15;81.15;100705.16;3565788;40;20041;-63
2022/12/30 06:44:44;;;;;;;11.95;2.55;;;;;;;6.14;80.75;100700.72;3568602;40;20087;-63
2022/12/30 06:47:09;;;;;;;12.95;2.80;;;;;;;6.16;80.73;100701.53;3563940;40;20064;-62
2022/12/30 06:49:35;;;;;;;16.58;2.65;;;;;;;6.12;81.08;100686.63;3564596;40;20363;-62
2022/12/30 06:52:01;;;;;;;12.70;3.33;;;;;;;6.16;80.84;100690.84;3561902;40;20051;-62
2022/12/30 06:54:26;;;;;;;12.15;3.00;;;;;;;6.19;81.25;100680.03;3565862;40;20069;-63
2022/12/30 06:56:52;;;;;;;10.43;2.72;;;;;;;6.21;80.64;100674.63;3568712;40;20059;-62
2022/12/30 06:59:17;;;;;;;12.98;2.83;;;;;;;6.18;80.81;100667.63;3564695;40;20304;-62
2022/12/30 07:01:43;;;;;;;15.30;2.92;;;;;;;6.18;81.19;100656.09;3568632;40;20053;-62
2022/12/30 07:04:08;;;;;;;8.15;2.55;;;;;;;6.17;81.13;100660.56;3565059;40;20052;-62
2022/12/30 07:06:34;;;;;;;12.25;3.05;;;;;;;5.43;81.27;100528.81;3566905;40;20065;-62
2022/12/30 07:08:59;;;;;;;12.10;3.15;;;;;;;6.23;80.74;100649.59;3571459;40;20114;-62
2022/12/30 07:11:25;;;;;;;13.90;3.03;;;;;;;5.31;81.28;100499.09;3567635;40;20081;-62
2022/12/30 07:13:51;;;;;;;14.35;2.95;;;;;;;6.21;81.01;100635.44;3565744;40;20060;-62
2022/12/30 07:16:16;;;;;;;11.35;3.20;;;;;;;6.21;81.59;100635.44;3570259;40;20056;-61
2022/12/30 07:18:42;;;;;;;14.50;3.40;;;;;;;6.25;81.64;100641.53;3566045;40;20060;-62
2022/12/30 07:21:07;;;;;;;12.50;3.55;;;;;;;6.25;81.06;100639.72;3567424;40;20052;-62
2022/12/30 07:23:33;;;;;;;10.73;2.85;;;;;;;6.27;81.26;100637.81;3564032;40;20246;-62
2022/12/30 07:25:59;;;;;;;10.60;3.10;;;;;;;6.32;81.37;100637.63;3567399;40;20060;-62
2022/12/30 07:28:24;;;;;;;8.25;3.20;;;;;;;5.60;81.08;100510.22;3567999;40;20090;-62
2022/12/30 07:30:50;;;;;;;13.95;3.10;;;;;;;6.36;81.13;100633.00;3562906;40;20316;-62
2022/12/30 07:33:15;;;;;;;11.93;3.03;;;;;;;6.38;80.89;100621.31;3561800;40;20048;-61
2022/12/30 07:35:41;;;;;;;15.75;2.92;;;;;;;6.43;81.12;100613.94;3558163;40;20387;-62
2022/12/30 07:38:07;;;;;;;9.57;2.58;;;;;;;6.49;81.09;100610.13;3562035;40;20053;-62
2022/12/30 07:40:32;;;;;;;9.85;3.13;;;;;;;6.50;80.58;100602.06;3569528;40;20260;-62
2022/12/30 07:42:58;;;;;;;7.38;2.70;;;;;;;6.55;80.90;100601.81;3566778;40;20055;-62
2022/12/30 07:45:24;;;;;;;8.27;3.08;;;;;;;6.59;80.60;100595.38;3570285;40;20052;-62
2022/12/30 07:47:49;;;;;;;11.68;2.30;;;;;;;6.62;80.44;100589.03;3569200;40;20064;-62
2022/12/30 07:50:15;;;;;;;8.50;2.13;;;;;;;6.67;80.55;100584.31;3568250;40;20326;-62
2022/12/30 07:52:40;;;;;;;5.95;2.53;;;;;;;6.69;80.08;100577.97;3570563;40;20072;-62
2022/12/30 07:55:07;;;;;;;10.40;2.42;;;;;;;6.72;79.80;100577.81;3567755;40;20061;-63
2022/12/30 07:57:33;;;;;;;7.85;2.25;;;;;;;6.75;80.08;100574.09;3558848;40;20071;-63
2022/12/30 07:59:58;;;;;;;5.13;2.03;;;;;;;6.83;80.01;100569.25;3568887;40;20057;-63
2022/12/30 08:02:24;;;;;;;6.50;2.40;;;;;;;6.85;79.50;100551.34;3570949;40;20056;-63
2022/12/30 08:04:49;;;;;;;9.75;2.53;;;;;;;6.92;79.71;100560.78;3566718;40;20048;-63
2022/12/30 08:07:18;;;;;;;11.40;2.92;;;;;;;6.96;79.31;100550.78;3567606;40;20375;-63
2022/12/30 08:09:45;;;;;;;10.27;2.70;;;;;;;7.00;79.75;100547.00;3564907;40;20053;-63
2022/12/30 08:12:11;;;;;;;9.77;3.25;;;;;;;7.04;79.15;100547.72;3571935;40;20394;-63
2022/12/30 08:14:36;;;;;;;11.90;2.90;;;;;;;7.10;79.61;100544.72;3567063;40;20167;-63
2022/12/30 08:17:02;;;;;;;8.48;2.90;;;;;;;7.11;78.82;100539.31;3564341;40;20112;-63
2022/12/30 08:19:29;;;;;;;13.00;2.70;;;;;;;6.45;79.40;100429.66;3566732;40;20123;-63
2022/12/30 08:21:54;;;;;;;8.25;2.35;;;;;;;7.19;79.62;100530.88;3564994;40;20059;-63
2022/12/30 08:24:20;;;;;;;10.35;2.60;;;;;;;7.27;79.28;100534.03;3569301;40;20464;-63
2022/12/30 08:26:46;;;;;;;8.32;2.55;;;;;;;7.29;78.92;100525.91;3567062;40;20061;-63
2022/12/30 08:29:11;;;;;;;9.82;3.30;;;;;;;6.52;79.02;100393.69;3566895;40;20402;-63
2022/12/30 08:31:37;;;;;;;7.60;2.40;;;;;;;6.17;78.61;100326.09;3566841;40;20101;-63
2022/12/30 08:34:03;;;;;;;6.00;2.30;;;;;;;7.40;78.30;100520.88;3563521;40;20052;-63
2022/12/30 08:36:29;;;;;;;10.18;2.58;;;;;;;7.45;78.20;100518.78;3569387;40;20268;-63
2022/12/30 08:39:00;;;;;;;9.70;2.88;;;;;;;6.76;78.34;100385.34;3567618;40;20061;-63
2022/12/30 08:41:32;;;;;;;8.23;2.33;;;;;;;7.52;78.10;100522.88;3566864;40;20061;-63
2022/12/30 08:43:59;;;;;;;8.13;2.60;;;;;;;7.47;78.63;100498.19;3568794;40;20060;-63
2022/12/30 08:46:28;;;;;;;4.22;2.13;;;;;;;7.60;78.45;100506.41;3567911;40;20410;-63
2022/12/30 08:48:54;;;;;;;6.78;2.15;;;;;;;7.64;78.45;100490.13;3568127;40;20056;-63
2022/12/30 08:51:21;;;;;;;8.20;2.53;;;;;;;7.68;77.94;100494.34;3567374;40;20316;-63
2022/12/30 08:53:46;;;;;;;8.77;2.50;;;;;;;7.73;78.20;100486.06;3567020;40;20084;-63
2022/12/30 08:56:24;;;;;;;7.63;2.30;;;;;;;7.76;77.89;100496.59;3563159;40;20053;-63
2022/12/30 08:58:50;;;;;;;7.35;2.20;;;;;;;7.80;78.12;100478.53;3566088;40;20057;-63
2022/12/30 09:01:24;;;;;;;7.35;2.35;;;;;;;7.85;77.58;100479.16;3565276;40;20057;-64
2022/12/30 09:03:51;;;;;;;;;;;;;;;7.90;76.79;100479.78;3571204;40;20053;-63
2022/12/30 09:06:21;;;;;;;5.45;1.98;;;;;;;7.93;76.58;100476.94;3567396;40;19932;-63
2022/12/30 09:08:48;;;;;;;5.55;2.20;;;;;;;7.96;77.06;100474.09;3566155;40;20057;-63
2022/12/30 09:11:25;;;;;;;9.38;2.35;;;;;;;8.00;77.09;100459.56;3568407;40;20084;-63
2022/12/30 09:13:51;;;;;;;6.53;1.70;;;;;;;8.03;76.33;100456.72;3568799;40;20391;-62
2022/12/30 09:16:21;;;;;;;5.35;1.65;;;;;;;8.07;76.79;100447.56;3567359;40;20054;-63
2022/12/30 09:18:48;;;;;;;6.65;1.80;;;;;;;8.13;75.73;100446.34;3566496;40;20065;-63
2022/12/30 09:21:14;;;;;;;4.07;1.50;;;;;;;8.16;75.81;100435.47;3567189;40;20362;-63
2022/12/30 09:23:40;;;;;;;6.97;2.00;;;;;;;8.20;76.30;100442.34;3564079;40;20052;-63
2022/12/30 09:26:08;;;;;;;6.35;2.10;;;;;;;8.26;75.25;100446.50;3562937;40;20300;-63
2022/12/30 09:28:34;;;;;;;7.13;1.85;;;;;;;7.53;75.46;100307.97;3565989;40;20510;-63
2022/12/30 09:31:00;;;;;;;7.50;1.88;;;;;;;8.36;74.77;100434.28;3564972;40;20053;-63
2022/12/30 09:33:25;;;;;;;2.65;1.33;;;;;;;8.37;75.78;100438.69;3563431;40;20320;-63
2022/12/30 09:35:51;;;;;;;5.30;1.50;;;;;;;8.44;74.67;100428.53;3567043;40;20052;-63
2022/12/30 09:38:19;;;;;;;4.93;1.52;;;;;;;8.48;74.07;100436.28;3569687;40;20053;-64
2022/12/30 09:40:56;;;;;;;6.13;1.67;;;;;;;8.54;73.93;100422.50;3563112;40;20080;-64
2022/12/30 09:43:42;;;;;;;5.43;1.75;;;;;;;8.59;75.02;100420.44;3554733;40;20395;-64
2022/12/30 09:46:58;;;;;;;6.20;1.63;;;;;;;8.65;74.36;100421.84;3565841;40;20312;-64
2022/12/30 09:49:47;;;;;;;4.60;1.50;;;;;;;8.67;74.26;100403.88;3561208;40;20122;-64
2022/12/30 09:52:31;;;;;;;4.43;1.40;;;;;;;8.70;73.38;100402.84;3565970;40;20053;-64
2022/12/30 09:55:13;;;;;;;4.00;1.52;;;;;;;8.78;73.96;100400.53;3563994;40;20053;-64
2022/12/30 09:57:47;;;;;;;4.55;1.50;;;;;;;8.81;73.82;100398.53;3566094;40;20121;-64
2022/12/30 10:00:19;;;;;;;4.78;1.50;;;;;;;8.87;72.96;100388.41;3564834;40;20130;-64
2022/12/30 10:03:17;;;;;;;6.18;1.60;;;;;;;8.89;72.93;100387.34;3563148;40;20059;-64
2022/12/30 10:06:06;;;;;;;5.20;1.20;;;;;;;8.94;73.36;100379.88;3563304;40;20392;-64
2022/12/30 10:09:10;;;;;;;3.95;1.25;;;;;;;8.98;72.83;100364.47;3567170;40;20052;-63
2022/12/30 10:11:48;;;;;;;3.03;1.40;;;;;;;9.01;72.53;100369.66;3566686;40;20088;-64
2022/12/30 10:14:29;;;;;;;6.25;1.50;;;;;;;9.06;72.35;100365.69;3563500;40;20143;-64
2022/12/30 10:18:00;;;;;;;6.78;1.63;;;;;;;8.37;72.50;100227.09;3565773;40;20064;-64
2022/12/30 10:20:50;;;;;;;6.68;1.65;;;;;;;9.12;72.26;100334.09;3565502;40;20052;-64
2022/12/30 10:24:03;;;;;;;2.00;1.17;;;;;;;9.16;72.13;100322.22;3564639;40;20357;-64
2022/12/30 10:26:50;;;;;;;4.80;1.10;;;;;;;9.17;72.50;100305.19;3564873;40;20055;-64
2022/12/30 10:29:34;;;;;;;8.43;1.77;;;;;;;9.19;71.89;100288.00;3563945;40;20037;-64
2022/12/30 10:32:21;;;;;;;3.45;1.15;;;;;;;9.23;71.86;100294.91;3566722;40;20097;-63
2022/12/30 10:35:26;;;;;;;5.75;1.42;;;;;;;9.26;71.69;100280.44;3564790;40;20052;-63
2022/12/30 10:38:13;;;;;;;5.78;1.77;;;;;;;9.25;72.19;100276.88;3560724;40;20048;-63
2022/12/30 10:41:33;;;;;;;4.88;1.30;;;;;;;9.31;71.91;100272.97;3566217;40;20597;-63
2022/12/30 10:44:14;;;;;;;6.20;1.40;;;;;;;9.37;71.37;100264.50;3556447;40;20101;-63
2022/12/30 10:47:08;;;;;;;9.57;1.52;;;;;;;9.41;71.25;100254.44;3565272;40;20323;-63
2022/12/30 10:50:14;;;;;;;4.13;1.70;;;;;;;9.44;71.14;100238.13;3565122;40;20060;-63
2022/12/30 10:52:40;;;;;;;7.45;2.08;;;;;;;9.49;71.07;100234.19;3564891;40;20395;-64
2022/12/30 10:55:46;;;;;;;4.18;1.77;;;;;;;9.49;70.73;100231.50;3568136;40;20142;-64
2022/12/30 10:58:26;;;;;;;8.48;1.90;;;;;;;9.54;70.72;100213.25;3562998;40;20371;-63
2022/12/30 11:00:53;;;;;;;9.32;2.03;;;;;;;9.54;71.09;100197.16;3563271;40;20060;-63
2022/12/30 11:03:41;;;;;;;7.72;2.15;;;;;;;8.86;71.07;100082.00;3562494;40;20053;-63
2022/12/30 11:06:26;;;;;;;5.97;1.80;;;;;;;9.11;70.25;100101.81;3562780;40;20057;-63
2022/12/30 11:09:14;;;;;;;7.13;2.72;;;;;;;8.90;70.64;100062.06;3567949;40;20060;-64
2022/12/30 11:15:05;;;;;;;6.22;1.83;;;;;;;9.70;70.64;100170.13;3562593;40;20060;-64
2022/12/30 11:17:57;;;;;;;9.30;1.98;;;;;;;9.70;70.94;100159.41;3565162;40;20094;-63
2022/12/30 11:20:41;;;;;;;7.03;1.50;;;;;;;9.47;70.50;100109.16;3565975;40;20061;-63
2022/12/30 11:23:32;;;;;;;5.80;1.65;;;;;;;9.75;69.99;100135.81;3565819;40;20403;-64
2022/12/30 11:26:02;;;;;;;8.48;1.92;;;;;;;9.75;70.47;100129.59;3562775;40;20163;-64
2022/12/30 11:28:44;;;;;;;5.63;1.65;;;;;;;9.80;70.53;100121.19;3568770;40;20064;-64
2022/12/30 11:31:16;;;;;;;6.53;1.58;;;;;;;9.78;69.77;100113.25;3556055;40;20130;-64
2022/12/30 11:33:54;;;;;;;10.27;1.88;;;;;;;9.81;70.10;100096.09;3567808;40;20056;-64
2022/12/30 11:36:31;;;;;;;4.43;1.70;;;;;;;9.80;70.41;100083.63;3570263;40;20158;-64
2022/12/30 11:39:23;;;;;;;4.60;1.30;;;;;;;9.84;70.14;100077.94;3570103;40;20073;-64
2022/12/30 11:41:56;;;;;;;7.43;1.80;;;;;;;9.90;69.38;100064.09;3566342;40;20069;-63
2022/12/30 11:44:25;;;;;;;7.60;1.77;;;;;;;9.93;69.74;100050.44;3568987;40;20065;-64
2022/12/30 11:46:56;;;;;;;8.23;2.00;;;;;;;9.96;69.12;100044.84;3571130;40;20066;-64
2022/12/30 11:49:37;;;;;;;10.15;2.22;;;;;;;10.02;69.58;100040.00;3565617;40;20061;-64
2022/12/30 11:52:15;;;;;;;7.38;1.67;;;;;;;10.05;69.28;100037.94;3569319;40;20304;-64
2022/12/30 11:54:50;;;;;;;6.47;1.83;;;;;;;10.10;69.43;100017.00;3564888;40;20056;-64
2022/12/30 11:57:42;;;;;;;5.88;1.20;;;;;;;10.14;69.12;100007.72;3565525;40;20065;-63
2022/12/30 12:00:16;;;;;;;7.97;1.67;;;;;;;10.14;68.63;99990.75;3569208;40;20057;-63
2022/12/30 12:02:54;;;;;;;13.93;2.15;;;;;;;10.18;68.92;99986.88;3568526;40;20410;-63
2022/12/30 12:05:22;;;;;;;8.70;1.75;;;;;;;10.24;68.89;99986.44;3567317;40;20045;-63
2022/12/30 12:07:53;;;;;;;6.63;1.50;;;;;;;10.27;67.79;99970.13;3571539;40;20060;-63
2022/12/30 12:10:36;;;;;;;8.13;1.65;;;;;;;10.28;68.30;99979.91;3573867;40;20404;-62
2022/12/30 12:13:24;;;;;;;7.45;1.88;;;;;;;10.30;67.88;99964.53;3567958;40;20056;-62
2022/12/30 12:15:58;;;;;;;7.95;1.95;;;;;;;10.36;67.79;99965.91;3567727;40;20061;-62
2022/12/30 12:19:00;;;;;;;8.23;2.00;;;;;;;10.36;68.93;99953.31;3568110;40;20049;-63
2022/12/30 12:21:28;;;;;;;7.47;1.50;;;;;;;10.39;69.25;99944.19;3569426;40;20052;-63
2022/12/30 12:24:18;;;;;;;8.52;1.60;;;;;;;10.39;68.90;99938.81;3567575;40;20372;-63
2022/12/30 12:27:09;;;;;;;6.80;1.95;;;;;;;10.36;69.65;99937.19;3568340;40;20079;-63
2022/12/30 12:29:36;;;;;;;5.72;1.85;;;;;;;10.31;71.02;99922.44;3564869;40;20037;-62
2022/12/30 12:32:26;;;;;;;7.55;1.67;;;;;;;10.25;70.93;99921.00;3563565;40;20119;-63
2022/12/30 12:35:54;;;;;;;3.85;1.20;;;;;;;10.21;72.15;99919.50;3566065;40;20060;-63
2022/12/30 12:38:28;;;;;;;6.72;1.33;;;;;;;10.16;72.30;99893.00;3547577;40;20281;-64
2022/12/30 12:41:49;;;;;;;8.13;1.85;;;;;;;9.94;73.90;99882.16;3569613;40;21389;-65
2022/12/30 12:44:14;;;;;;;6.95;1.42;;;;;;;9.83;75.38;99874.91;3519342;40;20058;-64
2022/12/30 12:46:48;;;;;;;5.45;1.80;;;;;;;9.81;76.03;99871.47;3520173;40;20421;-64
2022/12/30 12:49:19;;;;;;;6.38;1.90;;;;;;;9.75;77.17;99859.38;3550610;40;20506;-64
2022/12/30 12:51:48;;;;;;;6.65;1.75;;;;;;;9.72;77.95;99840.81;3567835;40;20115;-64